sensor_id;sensor_type;location;lat;lon;timestamp;pressure;altitude;pressure_sealevel;temperature;humidity
62978;BME280;49073;42.352;23.808;2023-02-23T00:00:12;94562.13;;;4.07;72.30
62978;BME280;49073;42.352;23.808;2023-02-23T00:03:27;94557.06;;;3.93;72.52
62978;BME280;49073;42.352;23.808;2023-02-23T00:06:29;94562.63;;;4.00;72.66
62978;BME280;49073;42.352;23.808;2023-02-23T00:09:30;94569.88;;;4.12;72.40
62978;BME280;49073;42.352;23.808;2023-02-23T00:12:34;94566.31;;;4.08;70.91
62978;BME280;49073;42.352;23.808;2023-02-23T00:15:35;94564.47;;;4.00;72.44
62978;BME280;49073;42.352;23.808;2023-02-23T00:18:35;94569.75;;;4.08;71.77
62978;BME280;49073;42.352;23.808;2023-02-23T00:21:45;94567.16;;;3.82;71.93
62978;BME280;49073;42.352;23.808;2023-02-23T00:24:46;94579.09;;;3.79;72.08
62978;BME280;49073;42.352;23.808;2023-02-23T00:27:47;94575.69;;;3.79;71.94
62978;BME280;49073;42.352;23.808;2023-02-23T00:30:48;94573.50;;;3.72;72.11
62978;BME280;49073;42.352;23.808;2023-02-23T00:33:49;94577.69;;;3.47;73.06
62978;BME280;49073;42.352;23.808;2023-02-23T00:36:53;94574.44;;;3.50;72.65
62978;BME280;49073;42.352;23.808;2023-02-23T00:39:55;94568.09;;;3.51;72.94
62978;BME280;49073;42.352;23.808;2023-02-23T00:42:56;94574.59;;;3.54;73.15
62978;BME280;49073;42.352;23.808;2023-02-23T00:45:57;94566.25;;;3.52;73.54
62978;BME280;49073;42.352;23.808;2023-02-23T00:48:58;94565.78;;;3.49;74.30
62978;BME280;49073;42.352;23.808;2023-02-23T00:51:58;94566.72;;;3.54;73.03
62978;BME280;49073;42.352;23.808;2023-02-23T00:54:59;94563.00;;;3.55;73.13
62978;BME280;49073;42.352;23.808;2023-02-23T00:57:59;94561.13;;;3.46;72.53
62978;BME280;49073;42.352;23.808;2023-02-23T01:01:00;94555.56;;;3.39;71.97
62978;BME280;49073;42.352;23.808;2023-02-23T01:04:01;94559.41;;;3.24;72.80
62978;BME280;49073;42.352;23.808;2023-02-23T01:07:01;94563.09;;;3.14;73.62
62978;BME280;49073;42.352;23.808;2023-02-23T01:10:06;94559.25;;;3.12;73.96
62978;BME280;49073;42.352;23.808;2023-02-23T01:13:19;94558.78;;;3.18;73.79
62978;BME280;49073;42.352;23.808;2023-02-23T01:16:22;94559.53;;;3.10;73.49
62978;BME280;49073;42.352;23.808;2023-02-23T01:19:25;94560.63;;;3.00;73.87
62978;BME280;49073;42.352;23.808;2023-02-23T01:22:26;94554.28;;;3.01;74.05
62978;BME280;49073;42.352;23.808;2023-02-23T01:25:26;94552.06;;;2.86;74.19
62978;BME280;49073;42.352;23.808;2023-02-23T01:28:28;94548.81;;;2.80;75.29
62978;BME280;49073;42.352;23.808;2023-02-23T01:31:29;94542.75;;;2.71;75.36
62978;BME280;49073;42.352;23.808;2023-02-23T01:34:30;94545.53;;;2.74;75.66
62978;BME280;49073;42.352;23.808;2023-02-23T01:37:36;94550.03;;;2.83;75.80
62978;BME280;49073;42.352;23.808;2023-02-23T01:40:41;94553.47;;;2.83;75.26
62978;BME280;49073;42.352;23.808;2023-02-23T01:44:08;94556.56;;;2.85;75.90
62978;BME280;49073;42.352;23.808;2023-02-23T01:47:24;94550.34;;;2.72;75.67
62978;BME280;49073;42.352;23.808;2023-02-23T01:50:27;94554.97;;;2.75;76.00
62978;BME280;49073;42.352;23.808;2023-02-23T01:53:32;94549.44;;;2.77;76.32
62978;BME280;49073;42.352;23.808;2023-02-23T01:56:35;94555.28;;;2.65;75.98
62978;BME280;49073;42.352;23.808;2023-02-23T01:59:44;94547.81;;;2.58;76.23
62978;BME280;49073;42.352;23.808;2023-02-23T02:02:45;94552.13;;;2.54;76.21
62978;BME280;49073;42.352;23.808;2023-02-23T02:05:49;94554.13;;;2.49;76.04
62978;BME280;49073;42.352;23.808;2023-02-23T02:08:52;94558.19;;;2.55;76.87
62978;BME280;49073;42.352;23.808;2023-02-23T02:11:54;94555.88;;;2.62;76.59
62978;BME280;49073;42.352;23.808;2023-02-23T02:14:56;94552.44;;;2.53;75.70
62978;BME280;49073;42.352;23.808;2023-02-23T02:18:14;94558.75;;;2.43;76.21
62978;BME280;49073;42.352;23.808;2023-02-23T02:38:28;94550.63;;;2.62;77.23
62978;BME280;49073;42.352;23.808;2023-02-23T02:41:48;94559.25;;;2.54;77.24
62978;BME280;49073;42.352;23.808;2023-02-23T02:48:32;94555.50;;;2.46;75.81
62978;BME280;49073;42.352;23.808;2023-02-23T02:54:43;94553.56;;;2.29;76.18
62978;BME280;49073;42.352;23.808;2023-02-23T02:57:47;94564.47;;;2.36;76.57
62978;BME280;49073;42.352;23.808;2023-02-23T03:00:49;94562.16;;;2.43;76.89
62978;BME280;49073;42.352;23.808;2023-02-23T03:04:23;94566.03;;;2.46;76.55
62978;BME280;49073;42.352;23.808;2023-02-23T03:07:55;94560.34;;;2.61;75.11
62978;BME280;49073;42.352;23.808;2023-02-23T03:11:18;94561.00;;;2.67;75.31
62978;BME280;49073;42.352;23.808;2023-02-23T03:14:39;94566.50;;;2.48;74.21
62978;BME280;49073;42.352;23.808;2023-02-23T03:18:29;94564.81;;;2.21;75.16
62978;BME280;49073;42.352;23.808;2023-02-23T03:32:57;94567.06;;;2.04;77.81
62978;BME280;49073;42.352;23.808;2023-02-23T03:36:25;94564.97;;;2.15;77.89
62978;BME280;49073;42.352;23.808;2023-02-23T03:39:55;94571.63;;;2.22;77.57
62978;BME280;49073;42.352;23.808;2023-02-23T03:43:19;94568.84;;;2.18;77.37
62978;BME280;49073;42.352;23.808;2023-02-23T03:46:40;94565.31;;;2.23;77.51
62978;BME280;49073;42.352;23.808;2023-02-23T03:50:04;94571.75;;;2.39;76.53
62978;BME280;49073;42.352;23.808;2023-02-23T03:53:29;94576.47;;;2.28;75.63
62978;BME280;49073;42.352;23.808;2023-02-23T03:56:50;94582.50;;;2.29;76.12
62978;BME280;49073;42.352;23.808;2023-02-23T04:00:17;94583.88;;;2.26;76.41
62978;BME280;49073;42.352;23.808;2023-02-23T04:03:41;94573.97;;;2.23;76.37
62978;BME280;49073;42.352;23.808;2023-02-23T04:07:02;94573.19;;;2.23;76.18
62978;BME280;49073;42.352;23.808;2023-02-23T04:10:24;94581.22;;;2.17;76.42
62978;BME280;49073;42.352;23.808;2023-02-23T04:13:47;94579.03;;;2.11;76.20
62978;BME280;49073;42.352;23.808;2023-02-23T04:16:49;94577.81;;;1.94;76.79
62978;BME280;49073;42.352;23.808;2023-02-23T04:19:54;94571.22;;;1.97;77.53
62978;BME280;49073;42.352;23.808;2023-02-23T04:22:54;94564.88;;;1.98;77.91
62978;BME280;49073;42.352;23.808;2023-02-23T04:25:55;94571.50;;;1.95;78.19
62978;BME280;49073;42.352;23.808;2023-02-23T04:28:56;94576.63;;;2.00;77.71
62978;BME280;49073;42.352;23.808;2023-02-23T04:31:57;94570.50;;;1.82;77.50
62978;BME280;49073;42.352;23.808;2023-02-23T04:34:57;94565.19;;;1.73;77.75
62978;BME280;49073;42.352;23.808;2023-02-23T04:37:58;94573.06;;;1.73;78.23
62978;BME280;49073;42.352;23.808;2023-02-23T04:40:58;94572.59;;;1.71;78.91
62978;BME280;49073;42.352;23.808;2023-02-23T04:43:59;94574.44;;;1.71;79.15
62978;BME280;49073;42.352;23.808;2023-02-23T04:46:59;94574.25;;;1.67;79.02
62978;BME280;49073;42.352;23.808;2023-02-23T04:50:00;94574.06;;;1.64;78.44
62978;BME280;49073;42.352;23.808;2023-02-23T04:53:01;94580.41;;;1.63;78.95
62978;BME280;49073;42.352;23.808;2023-02-23T04:56:02;94571.91;;;1.66;78.66
62978;BME280;49073;42.352;23.808;2023-02-23T04:59:03;94578.78;;;1.76;78.35
62978;BME280;49073;42.352;23.808;2023-02-23T05:02:04;94587.44;;;1.76;77.75
62978;BME280;49073;42.352;23.808;2023-02-23T05:05:06;94584.78;;;1.67;78.96
62978;BME280;49073;42.352;23.808;2023-02-23T05:08:08;94580.22;;;1.82;77.84
62978;BME280;49073;42.352;23.808;2023-02-23T05:11:09;94571.75;;;1.85;77.84
62978;BME280;49073;42.352;23.808;2023-02-23T05:14:09;94597.94;;;1.76;77.54
62978;BME280;49073;42.352;23.808;2023-02-23T05:17:11;94589.06;;;1.63;77.57
62978;BME280;49073;42.352;23.808;2023-02-23T05:20:12;94591.09;;;1.66;78.61
62978;BME280;49073;42.352;23.808;2023-02-23T05:23:14;94597.72;;;1.64;79.86
62978;BME280;49073;42.352;23.808;2023-02-23T05:26:14;94600.53;;;1.67;80.83
62978;BME280;49073;42.352;23.808;2023-02-23T05:29:15;94600.97;;;1.83;79.97
62978;BME280;49073;42.352;23.808;2023-02-23T05:32:16;94597.00;;;1.95;78.68
62978;BME280;49073;42.352;23.808;2023-02-23T05:35:16;94609.72;;;2.01;79.05
62978;BME280;49073;42.352;23.808;2023-02-23T05:38:17;94609.72;;;2.01;79.80
62978;BME280;49073;42.352;23.808;2023-02-23T05:41:20;94610.59;;;2.20;80.30
62978;BME280;49073;42.352;23.808;2023-02-23T05:44:22;94620.16;;;2.38;79.47
62978;BME280;49073;42.352;23.808;2023-02-23T05:47:23;94619.88;;;2.49;79.63
62978;BME280;49073;42.352;23.808;2023-02-23T05:50:24;94618.88;;;2.67;79.26
62978;BME280;49073;42.352;23.808;2023-02-23T05:53:25;94617.56;;;2.87;79.22
62978;BME280;49073;42.352;23.808;2023-02-23T05:56:26;94628.78;;;3.19;79.35
62978;BME280;49073;42.352;23.808;2023-02-23T05:59:26;94630.22;;;3.34;79.65
62978;BME280;49073;42.352;23.808;2023-02-23T06:02:27;94622.47;;;3.47;80.14
62978;BME280;49073;42.352;23.808;2023-02-23T06:05:27;94634.91;;;3.73;79.34
62978;BME280;49073;42.352;23.808;2023-02-23T06:08:29;94628.22;;;3.75;79.85
62978;BME280;49073;42.352;23.808;2023-02-23T06:11:29;94637.22;;;3.74;79.60
62978;BME280;49073;42.352;23.808;2023-02-23T06:14:30;94641.56;;;3.79;79.65
62978;BME280;49073;42.352;23.808;2023-02-23T06:17:31;94636.91;;;4.02;79.14
62978;BME280;49073;42.352;23.808;2023-02-23T06:20:32;94641.41;;;4.11;79.05
62978;BME280;49073;42.352;23.808;2023-02-23T06:23:32;94648.22;;;4.20;78.86
62978;BME280;49073;42.352;23.808;2023-02-23T06:26:33;94645.41;;;4.34;78.53
62978;BME280;49073;42.352;23.808;2023-02-23T06:29:36;94639.34;;;4.43;78.45
62978;BME280;49073;42.352;23.808;2023-02-23T06:32:37;94651.69;;;4.60;78.28
62978;BME280;49073;42.352;23.808;2023-02-23T06:35:38;94654.34;;;4.60;78.61
62978;BME280;49073;42.352;23.808;2023-02-23T06:38:38;94655.59;;;4.62;78.71
62978;BME280;49073;42.352;23.808;2023-02-23T06:41:39;94654.00;;;4.70;78.58
62978;BME280;49073;42.352;23.808;2023-02-23T06:44:39;94652.59;;;4.73;78.86
62978;BME280;49073;42.352;23.808;2023-02-23T06:47:40;94662.41;;;4.72;79.09
62978;BME280;49073;42.352;23.808;2023-02-23T06:50:40;94656.13;;;4.86;78.50
62978;BME280;49073;42.352;23.808;2023-02-23T06:53:41;94656.69;;;5.00;77.74
62978;BME280;49073;42.352;23.808;2023-02-23T06:56:41;94654.97;;;5.04;78.06
62978;BME280;49073;42.352;23.808;2023-02-23T06:59:42;94652.94;;;5.10;77.28
62978;BME280;49073;42.352;23.808;2023-02-23T07:02:43;94651.75;;;5.29;77.60
62978;BME280;49073;42.352;23.808;2023-02-23T07:05:44;94654.84;;;5.31;77.48
62978;BME280;49073;42.352;23.808;2023-02-23T07:08:44;94649.59;;;5.52;77.25
62978;BME280;49073;42.352;23.808;2023-02-23T07:11:45;94649.59;;;5.52;77.06
62978;BME280;49073;42.352;23.808;2023-02-23T07:14:46;94641.31;;;5.32;77.52
62978;BME280;49073;42.352;23.808;2023-02-23T07:17:46;94646.03;;;5.48;77.68
62978;BME280;49073;42.352;23.808;2023-02-23T07:20:49;94642.13;;;5.54;77.31
62978;BME280;49073;42.352;23.808;2023-02-23T07:23:50;94644.31;;;5.73;76.88
62978;BME280;49073;42.352;23.808;2023-02-23T07:26:51;94659.00;;;5.83;76.69
62978;BME280;49073;42.352;23.808;2023-02-23T07:29:51;94645.22;;;5.99;76.64
62978;BME280;49073;42.352;23.808;2023-02-23T07:32:52;94639.75;;;6.04;75.74
62978;BME280;49073;42.352;23.808;2023-02-23T07:35:53;94648.19;;;6.18;75.10
62978;BME280;49073;42.352;23.808;2023-02-23T07:38:53;94642.97;;;6.43;75.34
62978;BME280;49073;42.352;23.808;2023-02-23T07:41:54;94646.56;;;6.60;73.91
62978;BME280;49073;42.352;23.808;2023-02-23T07:44:55;94640.84;;;6.70;73.75
62978;BME280;49073;42.352;23.808;2023-02-23T07:47:55;94647.91;;;6.78;73.98
62978;BME280;49073;42.352;23.808;2023-02-23T07:50:56;94637.88;;;6.96;72.29
62978;BME280;49073;42.352;23.808;2023-02-23T07:54:01;94645.50;;;7.23;71.83
62978;BME280;49073;42.352;23.808;2023-02-23T07:57:02;94635.78;;;7.39;71.17
62978;BME280;49073;42.352;23.808;2023-02-23T08:00:05;94647.69;;;7.46;70.85
62978;BME280;49073;42.352;23.808;2023-02-23T08:03:06;94635.75;;;7.52;70.11
62978;BME280;49073;42.352;23.808;2023-02-23T08:06:06;94638.56;;;7.84;69.64
62978;BME280;49073;42.352;23.808;2023-02-23T08:09:07;94642.25;;;8.08;68.92
62978;BME280;49073;42.352;23.808;2023-02-23T08:12:07;94649.94;;;8.25;67.40
62978;BME280;49073;42.352;23.808;2023-02-23T08:15:10;94639.84;;;8.31;66.97
62978;BME280;49073;42.352;23.808;2023-02-23T08:18:11;94644.53;;;8.50;65.93
62978;BME280;49073;42.352;23.808;2023-02-23T08:21:12;94635.47;;;8.67;64.40
62978;BME280;49073;42.352;23.808;2023-02-23T08:24:12;94645.88;;;8.88;63.38
62978;BME280;49073;42.352;23.808;2023-02-23T08:27:13;94639.25;;;8.98;62.53
62978;BME280;49073;42.352;23.808;2023-02-23T08:30:14;94638.03;;;9.28;63.33
62978;BME280;49073;42.352;23.808;2023-02-23T08:33:15;94647.66;;;9.68;61.58
62978;BME280;49073;42.352;23.808;2023-02-23T08:36:16;94644.88;;;9.81;59.76
62978;BME280;49073;42.352;23.808;2023-02-23T08:39:17;94632.28;;;9.97;58.48
62978;BME280;49073;42.352;23.808;2023-02-23T08:42:18;94636.97;;;9.84;58.31
62978;BME280;49073;42.352;23.808;2023-02-23T08:45:19;94630.66;;;9.93;58.06
62978;BME280;49073;42.352;23.808;2023-02-23T08:48:19;94624.13;;;10.49;59.52
62978;BME280;49073;42.352;23.808;2023-02-23T08:51:22;94623.34;;;10.68;57.88
62978;BME280;49073;42.352;23.808;2023-02-23T08:54:23;94631.22;;;10.84;56.53
62978;BME280;49073;42.352;23.808;2023-02-23T08:57:23;94628.41;;;10.54;55.78
62978;BME280;49073;42.352;23.808;2023-02-23T09:00:24;94625.06;;;10.80;57.39
62978;BME280;49073;42.352;23.808;2023-02-23T09:03:26;94630.09;;;10.85;56.39
62978;BME280;49073;42.352;23.808;2023-02-23T09:06:30;94632.88;;;10.93;55.41
62978;BME280;49073;42.352;23.808;2023-02-23T09:09:31;94628.19;;;10.86;56.69
62978;BME280;49073;42.352;23.808;2023-02-23T09:12:33;94633.06;;;11.03;55.21
62978;BME280;49073;42.352;23.808;2023-02-23T09:15:33;94637.13;;;11.20;55.03
62978;BME280;49073;42.352;23.808;2023-02-23T09:18:34;94631.19;;;11.31;54.40
62978;BME280;49073;42.352;23.808;2023-02-23T09:21:35;94637.97;;;11.52;53.49
62978;BME280;49073;42.352;23.808;2023-02-23T09:24:36;94630.25;;;11.46;53.83
62978;BME280;49073;42.352;23.808;2023-02-23T09:27:37;94629.84;;;12.02;54.04
62978;BME280;49073;42.352;23.808;2023-02-23T09:30:39;94627.78;;;11.88;52.72
62978;BME280;49073;42.352;23.808;2023-02-23T09:33:40;94633.03;;;12.11;52.09
62978;BME280;49073;42.352;23.808;2023-02-23T09:36:41;94626.34;;;12.28;51.89
62978;BME280;49073;42.352;23.808;2023-02-23T09:39:42;94641.56;;;12.58;51.53
62978;BME280;49073;42.352;23.808;2023-02-23T09:42:57;94633.00;;;12.83;50.65
62978;BME280;49073;42.352;23.808;2023-02-23T09:49:34;94638.63;;;13.16;50.04
62978;BME280;49073;42.352;23.808;2023-02-23T09:52:44;94632.66;;;13.37;50.49
62978;BME280;49073;42.352;23.808;2023-02-23T09:55:47;94633.97;;;13.58;49.44
62978;BME280;49073;42.352;23.808;2023-02-23T09:58:48;94618.59;;;13.47;48.63
62978;BME280;49073;42.352;23.808;2023-02-23T10:05:14;94618.31;;;13.60;49.10
62978;BME280;49073;42.352;23.808;2023-02-23T10:08:53;94624.53;;;13.82;48.74
62978;BME280;49073;42.352;23.808;2023-02-23T10:21:33;94609.22;;;13.75;49.45
62978;BME280;49073;42.352;23.808;2023-02-23T10:24:38;94605.88;;;14.07;47.78
62978;BME280;49073;42.352;23.808;2023-02-23T10:27:46;94602.06;;;14.08;46.99
62978;BME280;49073;42.352;23.808;2023-02-23T10:30:51;94603.22;;;14.04;46.94
62978;BME280;49073;42.352;23.808;2023-02-23T10:33:57;94611.94;;;13.90;47.29
62978;BME280;49073;42.352;23.808;2023-02-23T10:37:00;94598.28;;;14.17;47.57
62978;BME280;49073;42.352;23.808;2023-02-23T10:40:02;94590.94;;;13.99;46.86
62978;BME280;49073;42.352;23.808;2023-02-23T10:43:04;94592.13;;;14.09;47.22
62978;BME280;49073;42.352;23.808;2023-02-23T10:46:06;94589.09;;;14.18;47.89
62978;BME280;49073;42.352;23.808;2023-02-23T10:49:18;94554.63;;;14.16;45.88
62978;BME280;49073;42.352;23.808;2023-02-23T10:52:34;94586.50;;;14.54;46.64
62978;BME280;49073;42.352;23.808;2023-02-23T10:55:39;94581.88;;;14.51;45.99
62978;BME280;49073;42.352;23.808;2023-02-23T10:58:51;94572.72;;;14.55;46.01
62978;BME280;49073;42.352;23.808;2023-02-23T11:01:54;94569.22;;;14.37;45.37
62978;BME280;49073;42.352;23.808;2023-02-23T11:04:56;94574.19;;;14.35;45.83
62978;BME280;49073;42.352;23.808;2023-02-23T11:11:24;94566.19;;;14.49;45.21
62978;BME280;49073;42.352;23.808;2023-02-23T11:14:27;94571.19;;;14.65;45.31
62978;BME280;49073;42.352;23.808;2023-02-23T11:17:33;94562.78;;;15.00;44.85
62978;BME280;49073;42.352;23.808;2023-02-23T11:20:38;94565.09;;;14.87;44.69
62978;BME280;49073;42.352;23.808;2023-02-23T11:23:41;94560.06;;;14.60;45.13
62978;BME280;49073;42.352;23.808;2023-02-23T11:26:46;94560.47;;;14.54;44.84
62978;BME280;49073;42.352;23.808;2023-02-23T11:29:49;94557.78;;;14.47;45.26
62978;BME280;49073;42.352;23.808;2023-02-23T11:32:53;94560.50;;;14.83;45.77
62978;BME280;49073;42.352;23.808;2023-02-23T11:36:00;94555.88;;;15.02;45.29
62978;BME280;49073;42.352;23.808;2023-02-23T11:39:19;94544.38;;;14.69;44.75
62978;BME280;49073;42.352;23.808;2023-02-23T11:42:27;94561.63;;;14.61;44.98
62978;BME280;49073;42.352;23.808;2023-02-23T11:45:52;94553.94;;;14.63;45.50
62978;BME280;49073;42.352;23.808;2023-02-23T11:49:02;94554.34;;;14.65;45.76
62978;BME280;49073;42.352;23.808;2023-02-23T11:52:12;94552.06;;;14.81;45.67
62978;BME280;49073;42.352;23.808;2023-02-23T11:55:17;94555.50;;;15.04;45.13
62978;BME280;49073;42.352;23.808;2023-02-23T11:58:37;94563.56;;;14.89;45.87
62978;BME280;49073;42.352;23.808;2023-02-23T12:01:47;94552.06;;;14.81;45.81
62978;BME280;49073;42.352;23.808;2023-02-23T12:04:59;94560.88;;;14.86;45.73
62978;BME280;49073;42.352;23.808;2023-02-23T12:08:05;94558.97;;;14.79;46.25
62978;BME280;49073;42.352;23.808;2023-02-23T12:11:17;94562.78;;;15.10;45.06
62978;BME280;49073;42.352;23.808;2023-02-23T12:14:27;94568.53;;;15.12;45.23
62978;BME280;49073;42.352;23.808;2023-02-23T12:17:37;94563.94;;;15.13;44.88
62978;BME280;49073;42.352;23.808;2023-02-23T12:20:43;94558.94;;;14.97;45.18
62978;BME280;49073;42.352;23.808;2023-02-23T12:23:48;94559.72;;;15.12;44.95
62978;BME280;49073;42.352;23.808;2023-02-23T12:26:56;94562.00;;;15.10;44.47
62978;BME280;49073;42.352;23.808;2023-02-23T12:30:01;94558.91;;;15.33;44.56
62978;BME280;49073;42.352;23.808;2023-02-23T12:33:14;94562.78;;;15.14;44.28
62978;BME280;49073;42.352;23.808;2023-02-23T12:36:41;94563.94;;;15.13;45.26
62978;BME280;49073;42.352;23.808;2023-02-23T12:39:47;94568.53;;;15.27;44.09
62978;BME280;49073;42.352;23.808;2023-02-23T12:43:01;94575.41;;;15.32;45.09
62978;BME280;49073;42.352;23.808;2023-02-23T12:46:11;94571.19;;;15.23;45.17
62978;BME280;49073;42.352;23.808;2023-02-23T12:49:31;94571.94;;;14.69;46.08
62978;BME280;49073;42.352;23.808;2023-02-23T12:52:37;94573.13;;;14.79;44.00
62978;BME280;49073;42.352;23.808;2023-02-23T12:56:25;94570.47;;;14.97;44.74
62978;BME280;49073;42.352;23.808;2023-02-23T12:59:58;94576.19;;;15.07;44.91
62978;BME280;49073;42.352;23.808;2023-02-23T13:17:37;94592.88;;;13.99;45.73
62978;BME280;49073;42.352;23.808;2023-02-23T13:20:45;94577.50;;;13.92;46.05
62978;BME280;49073;42.352;23.808;2023-02-23T13:23:55;94575.34;;;14.23;46.19
62978;BME280;49073;42.352;23.808;2023-02-23T13:27:14;94589.38;;;13.91;45.43
62978;BME280;49073;42.352;23.808;2023-02-23T13:30:16;94589.72;;;13.82;45.26
62978;BME280;49073;42.352;23.808;2023-02-23T13:33:25;94598.81;;;13.66;45.83
62978;BME280;49073;42.352;23.808;2023-02-23T13:36:28;94597.56;;;13.49;46.04
62978;BME280;49073;42.352;23.808;2023-02-23T13:39:55;94596.03;;;13.45;46.37
62978;BME280;49073;42.352;23.808;2023-02-23T13:46:24;94594.41;;;13.33;46.97
62978;BME280;49073;42.352;23.808;2023-02-23T13:52:39;94594.59;;;13.06;46.72
62978;BME280;49073;42.352;23.808;2023-02-23T13:55:47;94609.09;;;13.01;47.27
62978;BME280;49073;42.352;23.808;2023-02-23T13:59:06;94608.31;;;13.01;48.29
62978;BME280;49073;42.352;23.808;2023-02-23T14:02:35;94610.16;;;12.93;48.50
62978;BME280;49073;42.352;23.808;2023-02-23T14:05:43;94610.63;;;12.61;49.15
62978;BME280;49073;42.352;23.808;2023-02-23T14:08:59;94609.91;;;12.64;49.54
62978;BME280;49073;42.352;23.808;2023-02-23T14:18:31;94617.72;;;12.42;51.12
62978;BME280;49073;42.352;23.808;2023-02-23T14:21:47;94626.13;;;12.41;51.35
62978;BME280;49073;42.352;23.808;2023-02-23T14:31:33;94619.38;;;11.89;52.22
62978;BME280;49073;42.352;23.808;2023-02-23T14:38:03;94622.75;;;11.83;53.65
62978;BME280;49073;42.352;23.808;2023-02-23T14:41:05;94623.09;;;11.81;53.78
62978;BME280;49073;42.352;23.808;2023-02-23T14:47:41;94627.03;;;11.60;55.04
62978;BME280;49073;42.352;23.808;2023-02-23T14:50:44;94629.63;;;11.57;55.53
62978;BME280;49073;42.352;23.808;2023-02-23T14:53:45;94634.16;;;11.53;56.05
62978;BME280;49073;42.352;23.808;2023-02-23T14:56:48;94630.88;;;11.36;56.97
62978;BME280;49073;42.352;23.808;2023-02-23T15:00:01;94628.16;;;11.32;57.24
62978;BME280;49073;42.352;23.808;2023-02-23T15:03:09;94627.22;;;11.21;57.78
62978;BME280;49073;42.352;23.808;2023-02-23T15:06:13;94636.03;;;11.25;58.07
62978;BME280;49073;42.352;23.808;2023-02-23T15:09:21;94628.69;;;11.18;58.49
62978;BME280;49073;42.352;23.808;2023-02-23T15:12:27;94633.81;;;11.04;58.97
62978;BME280;49073;42.352;23.808;2023-02-23T15:15:29;94634.13;;;10.99;59.49
62978;BME280;49073;42.352;23.808;2023-02-23T15:18:33;94641.50;;;10.86;59.90
62978;BME280;49073;42.352;23.808;2023-02-23T15:21:36;94653.19;;;10.77;60.59
62978;BME280;49073;42.352;23.808;2023-02-23T15:24:46;94653.91;;;10.74;61.00
62978;BME280;49073;42.352;23.808;2023-02-23T15:27:47;94650.88;;;10.76;61.25
62978;BME280;49073;42.352;23.808;2023-02-23T15:30:49;94653.66;;;10.60;61.80
62978;BME280;49073;42.352;23.808;2023-02-23T15:33:50;94652.75;;;10.52;62.47
62978;BME280;49073;42.352;23.808;2023-02-23T15:36:59;94656.09;;;10.49;62.77
62978;BME280;49073;42.352;23.808;2023-02-23T15:40:04;94670.84;;;10.43;63.30
62978;BME280;49073;42.352;23.808;2023-02-23T15:43:09;94668.09;;;10.39;64.29
62978;BME280;49073;42.352;23.808;2023-02-23T15:46:20;94678.16;;;10.30;65.28
62978;BME280;49073;42.352;23.808;2023-02-23T15:49:35;94681.94;;;10.29;65.68
62978;BME280;49073;42.352;23.808;2023-02-23T15:52:43;94678.69;;;10.16;66.46
62978;BME280;49073;42.352;23.808;2023-02-23T15:55:45;94681.63;;;10.11;66.80
62978;BME280;49073;42.352;23.808;2023-02-23T15:58:49;94685.94;;;9.99;67.55
62978;BME280;49073;42.352;23.808;2023-02-23T16:01:52;94692.78;;;10.00;67.93
62978;BME280;49073;42.352;23.808;2023-02-23T16:05:07;94700.31;;;9.95;68.13
62978;BME280;49073;42.352;23.808;2023-02-23T16:08:22;94707.72;;;9.85;68.41
62978;BME280;49073;42.352;23.808;2023-02-23T16:11:23;94708.00;;;9.64;69.80
62978;BME280;49073;42.352;23.808;2023-02-23T16:14:30;94712.06;;;9.58;70.35
62978;BME280;49073;42.352;23.808;2023-02-23T16:17:43;94714.72;;;9.58;70.61
62978;BME280;49073;42.352;23.808;2023-02-23T16:20:53;94720.03;;;9.42;71.56
62978;BME280;49073;42.352;23.808;2023-02-23T16:23:58;94727.75;;;9.31;73.15
62978;BME280;49073;42.352;23.808;2023-02-23T16:27:03;94732.22;;;9.27;73.80
62978;BME280;49073;42.352;23.808;2023-02-23T16:30:22;94736.69;;;9.23;74.64
62978;BME280;49073;42.352;23.808;2023-02-23T16:33:40;94739.75;;;9.09;76.10
62978;BME280;49073;42.352;23.808;2023-02-23T16:36:41;94738.56;;;9.06;76.67
62978;BME280;49073;42.352;23.808;2023-02-23T16:39:43;94751.50;;;9.08;77.21
62978;BME280;49073;42.352;23.808;2023-02-23T16:42:44;94755.75;;;8.96;77.91
62978;BME280;49073;42.352;23.808;2023-02-23T16:45:45;94757.91;;;8.91;78.37
62978;BME280;49073;42.352;23.808;2023-02-23T16:48:46;94761.09;;;8.96;78.26
62978;BME280;49073;42.352;23.808;2023-02-23T16:51:46;94763.19;;;8.75;79.09
62978;BME280;49073;42.352;23.808;2023-02-23T16:54:47;94768.75;;;8.69;79.43
62978;BME280;49073;42.352;23.808;2023-02-23T16:57:56;94774.66;;;8.50;80.94
62978;BME280;49073;42.352;23.808;2023-02-23T17:00:57;94786.84;;;8.51;81.24
62978;BME280;49073;42.352;23.808;2023-02-23T17:03:58;94779.31;;;8.53;81.45
62978;BME280;49073;42.352;23.808;2023-02-23T17:06:59;94787.94;;;8.50;81.75
62978;BME280;49073;42.352;23.808;2023-02-23T17:10:01;94786.84;;;8.39;82.05
62978;BME280;49073;42.352;23.808;2023-02-23T17:13:07;94790.81;;;8.45;82.03
62978;BME280;49073;42.352;23.808;2023-02-23T17:16:11;94800.13;;;8.51;81.90
62978;BME280;49073;42.352;23.808;2023-02-23T17:19:12;94787.97;;;8.38;82.46
62978;BME280;49073;42.352;23.808;2023-02-23T17:22:15;94802.81;;;8.26;83.21
62978;BME280;49073;42.352;23.808;2023-02-23T17:25:16;94790.09;;;8.20;83.90
62978;BME280;49073;42.352;23.808;2023-02-23T17:28:17;94810.97;;;8.21;84.18
62978;BME280;49073;42.352;23.808;2023-02-23T17:31:18;94810.69;;;8.10;85.17
62978;BME280;49073;42.352;23.808;2023-02-23T17:34:20;94805.25;;;7.94;86.32
62978;BME280;49073;42.352;23.808;2023-02-23T17:37:20;94808.56;;;8.04;86.64
62978;BME280;49073;42.352;23.808;2023-02-23T17:40:23;94805.56;;;7.93;86.91
62978;BME280;49073;42.352;23.808;2023-02-23T17:43:28;94804.47;;;7.94;87.25
62978;BME280;49073;42.352;23.808;2023-02-23T17:46:29;94803.03;;;7.96;87.25
62978;BME280;49073;42.352;23.808;2023-02-23T17:49:30;94808.03;;;7.98;86.98
62978;BME280;49073;42.352;23.808;2023-02-23T17:52:32;94812.56;;;7.85;87.15
62978;BME280;49073;42.352;23.808;2023-02-23T17:55:32;94801.72;;;7.90;87.35